Time;durP1;ratioP1;P1;durP2;ratioP2;P2;SDS_P1;SDS_P2;PMS_P1;PMS_P2;Temp;Humidity;BMP_temperature;BMP_pressure;BME280_temperature;BME280_humidity;BME280_pressure;Samples;Min_cycle;Max_cycle;Signal;HPM_P1;HPM_P2
2022/04/27 00:01:21;;;;;;;6.95;5.05;;;15.60;78.10;;;;;;10903415;32;20031;-74
2022/04/27 00:07:23;;;;;;;7.85;5.32;;;15.60;78.20;;;;;;10903306;32;20023;-74
2022/04/27 00:13:26;;;;;;;6.45;4.32;;;15.50;78.20;;;;;;10903310;32;20031;-75
2022/04/27 00:19:28;;;;;;;7.57;4.62;;;15.50;78.30;;;;;;10903246;32;20019;-70
2022/04/27 00:25:30;;;;;;;6.32;4.62;;;15.40;78.60;;;;;;10905866;32;20023;-70
2022/04/27 00:31:32;;;;;;;6.82;4.65;;;15.40;78.60;;;;;;10909725;32;20050;-70
2022/04/27 00:37:35;;;;;;;7.00;4.80;;;15.40;78.50;;;;;;10909537;32;20380;-70
2022/04/27 00:43:39;;;;;;;6.15;4.75;;;15.30;78.80;;;;;;10908335;32;20046;-70
2022/04/27 00:49:49;;;;;;;6.75;4.87;;;15.20;78.90;;;;;;10905010;32;20030;-70
2022/04/27 00:55:51;;;;;;;8.45;4.18;;;15.20;79.00;;;;;;10895589;32;20015;-70
2022/04/27 01:01:53;;;;;;;8.45;6.82;;;15.20;78.90;;;;;;10895264;32;20335;-70
2022/04/27 01:08:00;;;;;;;10.82;7.35;;;15.20;78.90;;;;;;10908447;32;20085;-70
2022/04/27 01:14:02;;;;;;;8.98;6.45;;;15.10;79.20;;;;;;10921702;27;291416;-74
2022/04/27 01:20:06;;;;;;;15.13;10.98;;;15.00;79.40;;;;;;11021598;32;20030;-75
2022/04/27 01:26:08;;;;;;;12.63;9.13;;;15.10;79.30;;;;;;11021297;32;20053;-75
2022/04/27 01:32:12;;;;;;;15.60;8.23;;;15.00;79.60;;;;;;11021221;32;20021;-75
2022/04/27 01:38:16;;;;;;;7.40;5.45;;;14.90;79.80;;;;;;11020755;32;20052;-75
2022/04/27 01:44:18;;;;;;;8.57;5.20;;;14.90;79.70;;;;;;11016269;32;20044;-75
2022/04/27 01:50:38;;;;;;;12.45;5.05;;;15.00;79.60;;;;;;11020463;32;20061;-74
2022/04/27 01:56:41;;;;;;;8.18;5.65;;;15.00;79.40;;;;;;11020256;32;20049;-75
2022/04/27 02:02:44;;;;;;;7.12;5.05;;;15.00;79.30;;;;;;11020010;32;20030;-74
2022/04/27 02:08:47;;;;;;;7.82;5.30;;;15.00;79.30;;;;;;11019767;32;20080;-74
2022/04/27 02:14:49;;;;;;;7.18;4.93;;;14.90;79.40;;;;;;11019334;32;20057;-74
2022/04/27 02:20:51;;;;;;;7.70;2.92;;;14.90;79.40;;;;;;11019176;32;20030;-74
2022/04/27 02:27:34;;;;;;;6.03;3.83;;;14.80;79.30;;;;;;11004602;32;20021;-73
2022/04/27 02:33:36;;;;;;;6.18;4.40;;;14.80;79.30;;;;;;11018870;32;20060;-73
2022/04/27 02:39:38;;;;;;;7.50;4.07;;;14.70;79.20;;;;;;11018554;32;20030;-74
2022/04/27 02:45:41;;;;;;;6.05;4.18;;;14.70;79.20;;;;;;11018413;32;20382;-74
2022/04/27 02:51:53;;;;;;;7.45;4.95;;;14.70;79.20;;;;;;11017983;32;20056;-74
2022/04/27 02:57:55;;;;;;;5.53;4.22;;;14.60;79.30;;;;;;11018218;32;20018;-74
2022/04/27 03:03:58;;;;;;;5.00;3.28;;;14.60;79.20;;;;;;11017914;32;20338;-74
2022/04/27 03:10:00;;;;;;;3.10;2.50;;;14.50;79.10;;;;;;11017776;32;20034;-74
2022/04/27 03:16:02;;;;;;;4.28;3.03;;;14.40;79.10;;;;;;11013440;32;20068;-74
2022/04/27 03:22:05;;;;;;;6.72;5.28;;;14.30;79.10;;;;;;11017672;32;20191;-74
2022/04/27 03:28:07;;;;;;;5.43;4.18;;;14.30;79.10;;;;;;11017559;32;20065;-74
2022/04/27 03:34:09;;;;;;;6.03;3.83;;;14.30;79.10;;;;;;11017494;32;20053;-75
2022/04/27 03:40:11;;;;;;;6.57;4.57;;;14.30;79.10;;;;;;11017352;32;20337;-75
2022/04/27 03:46:14;;;;;;;4.12;2.70;;;14.20;79.10;;;;;;11017249;32;20346;-75
2022/04/27 03:52:16;;;;;;;5.50;2.72;;;14.20;79.00;;;;;;11004712;32;20026;-75
2022/04/27 03:58:19;;;;;;;5.90;3.37;;;14.10;79.00;;;;;;11017299;32;20033;-75
2022/04/27 04:04:24;;;;;;;5.53;3.25;;;14.00;79.00;;;;;;11024215;32;20049;-75
2022/04/27 04:10:26;;;;;;;2.78;2.00;;;13.90;79.00;;;;;;11019690;32;20068;-75
2022/04/27 04:16:28;;;;;;;4.78;2.67;;;13.80;79.20;;;;;;11023816;32;20026;-75
2022/04/27 04:22:34;;;;;;;3.90;2.75;;;13.70;79.20;;;;;;11010470;32;20026;-75
2022/04/27 04:28:37;;;;;;;4.00;2.72;;;13.70;79.30;;;;;;11022437;32;20022;-75
2022/04/27 04:34:39;;;;;;;4.62;2.35;;;13.70;79.40;;;;;;11023254;32;20030;-75
2022/04/27 04:40:44;;;;;;;4.37;2.83;;;13.80;79.40;;;;;;11009476;32;20029;-75
2022/04/27 04:47:07;;;;;;;4.85;3.22;;;13.80;79.20;;;;;;11022654;32;20030;-70
2022/04/27 04:53:13;;;;;;;6.22;4.87;;;13.80;79.10;;;;;;11017826;32;20436;-70
2022/04/27 04:59:16;;;;;;;8.05;4.55;;;13.80;79.00;;;;;;11018105;32;20084;-70
2022/04/27 05:05:24;;;;;;;7.53;5.10;;;13.90;78.90;;;;;;11022110;32;20042;-70
2022/04/27 05:11:47;;;;;;;7.40;4.75;;;13.90;79.00;;;;;;11021555;32;20021;-70
2022/04/27 05:17:50;;;;;;;7.40;5.10;;;14.00;79.00;;;;;;11020705;32;20345;-70
2022/04/27 05:23:53;;;;;;;6.32;4.65;;;14.00;78.90;;;;;;11006741;32;20397;-70
2022/04/27 05:36:18;;;;;;;5.25;3.67;;;14.20;78.90;;;;;;10982627;32;20041;-70
2022/04/27 05:42:20;;;;;;;4.80;3.28;;;14.20;79.00;;;;;;10982459;32;20026;-70
2022/04/27 05:48:23;;;;;;;5.57;2.65;;;14.20;78.90;;;;;;10982468;32;20018;-70
2022/04/27 05:54:48;;;;;;;5.70;3.67;;;14.30;78.80;;;;;;10982052;32;20042;-70
2022/04/27 06:00:52;;;;;;;5.65;4.10;;;14.30;78.80;;;;;;10980413;32;20049;-70
2022/04/27 06:07:18;;;;;;;5.57;4.37;;;14.40;78.90;;;;;;10979701;32;20062;-70
2022/04/27 06:13:21;;;;;;;5.55;2.80;;;14.50;78.90;;;;;;10979613;32;20053;-71
2022/04/27 06:19:23;;;;;;;5.25;3.28;;;14.50;78.90;;;;;;10977375;32;20053;-70
2022/04/27 06:25:25;;;;;;;3.62;2.70;;;14.60;78.70;;;;;;10970693;32;20061;-71
2022/04/27 06:31:28;;;;;;;4.35;3.08;;;14.70;78.80;;;;;;10980104;32;20046;-70
2022/04/27 06:37:31;;;;;;;3.12;2.40;;;14.70;78.90;;;;;;10980312;32;20023;-70
2022/04/27 06:43:34;;;;;;;3.03;1.80;;;14.80;78.60;;;;;;10966901;32;20429;-70
2022/04/27 06:49:47;;;;;;;2.42;1.75;;;14.80;78.60;;;;;;10980228;32;20057;-70
2022/04/27 06:56:02;;;;;;;1.77;1.50;;;14.90;78.30;;;;;;10979019;32;20354;-70
2022/04/27 07:02:10;;;;;;;4.30;3.33;;;15.00;78.20;;;;;;10979710;32;20027;-69
2022/04/27 07:08:15;;;;;;;5.53;2.30;;;15.10;78.00;;;;;;10979659;32;20049;-70
2022/04/27 07:14:17;;;;;;;8.85;2.75;;;15.10;77.90;;;;;;10979528;32;20057;-69
2022/04/27 07:20:21;;;;;;;5.80;2.75;;;15.20;77.70;;;;;;10979462;32;20027;-70
2022/04/27 07:26:23;;;;;;;4.00;2.28;;;15.30;77.20;;;;;;10979520;32;20386;-70
2022/04/27 07:32:26;;;;;;;3.87;3.20;;;15.30;77.10;;;;;;10979072;32;20101;-70
2022/04/27 07:38:29;;;;;;;4.35;2.60;;;15.30;77.10;;;;;;10981971;32;20445;-70
2022/04/27 07:44:30;;;;;;;7.15;2.53;;;15.40;77.20;;;;;;10986575;32;20049;-69
2022/04/27 07:50:33;;;;;;;2.08;1.85;;;15.50;76.90;;;;;;10986646;32;20031;-69
2022/04/27 07:56:35;;;;;;;3.20;1.85;;;15.60;76.40;;;;;;10986156;32;20042;-69
2022/04/27 08:02:37;;;;;;;2.55;1.20;;;15.70;76.20;;;;;;10986163;32;20069;-70
2022/04/27 08:08:39;;;;;;;2.22;1.17;;;15.80;75.80;;;;;;10985151;32;20057;-70
2022/04/27 08:14:43;;;;;;;2.35;1.10;;;15.90;75.50;;;;;;10985774;32;20019;-69
2022/04/27 08:21:15;;;;;;;2.33;1.50;;;15.90;74.80;;;;;;10985400;32;20053;-69
2022/04/27 08:27:33;;;;;;;2.60;1.58;;;16.00;74.50;;;;;;10985962;32;20080;-70
2022/04/27 08:33:35;;;;;;;2.97;1.73;;;16.20;74.50;;;;;;10983208;32;20030;-70
2022/04/27 08:39:38;;;;;;;1.48;1.30;;;16.20;74.40;;;;;;10980412;32;20093;-70
2022/04/27 08:45:42;;;;;;;1.87;1.17;;;16.30;73.80;;;;;;10982438;32;20043;-70
2022/04/27 08:51:44;;;;;;;1.67;1.48;;;16.40;73.70;;;;;;10981170;32;20334;-70
2022/04/27 08:57:48;;;;;;;2.35;1.27;;;16.50;73.70;;;;;;10982410;32;20080;-69
2022/04/27 09:03:57;;;;;;;3.60;1.45;;;16.50;73.20;;;;;;10983570;32;20045;-70
2022/04/27 09:10:04;;;;;;;1.98;1.00;;;16.70;72.70;;;;;;10981396;32;20057;-70
2022/04/27 09:16:08;;;;;;;4.10;1.60;;;16.70;72.20;;;;;;10986997;27;20338;-71
2022/04/27 09:22:11;;;;;;;1.77;1.33;;;16.90;72.10;;;;;;10983192;32;20019;-69
2022/04/27 09:28:14;;;;;;;1.20;1.10;;;17.00;71.00;;;;;;10983054;32;20399;-69
2022/04/27 09:34:34;;;;;;;2.75;1.65;;;17.20;70.60;;;;;;10982783;32;20441;-69
2022/04/27 09:40:52;;;;;;;2.22;1.45;;;17.30;70.20;;;;;;10958986;32;20061;-69
2022/04/27 09:46:54;;;;;;;2.70;1.85;;;17.50;69.40;;;;;;10940066;32;20019;-68
2022/04/27 09:52:57;;;;;;;3.10;1.65;;;17.70;69.10;;;;;;10944388;32;20043;-69
2022/04/27 09:59:05;;;;;;;5.78;2.25;;;17.80;68.50;;;;;;10941789;32;20038;-68
2022/04/27 10:05:08;;;;;;;2.37;1.53;;;17.80;67.50;;;;;;10943981;32;20058;-69
2022/04/27 10:11:12;;;;;;;4.00;1.50;;;17.90;67.80;;;;;;10944003;32;20395;-67
2022/04/27 10:17:15;;;;;;;3.30;1.40;;;18.00;67.80;;;;;;10943411;32;20015;-68
2022/04/27 10:23:28;;;;;;;2.05;1.10;;;18.20;67.40;;;;;;10942410;32;20524;-69
2022/04/27 10:29:30;;;;;;;2.15;1.12;;;18.40;66.20;;;;;;10943184;32;20061;-68
2022/04/27 10:35:33;;;;;;;2.55;1.87;;;18.60;65.20;;;;;;10943066;32;20062;-67
2022/04/27 10:41:35;;;;;;;1.62;1.35;;;18.80;65.50;;;;;;10942594;32;20034;-68
2022/04/27 10:47:42;;;;;;;2.83;1.20;;;18.90;63.60;;;;;;10942458;32;20081;-67
2022/04/27 10:53:44;;;;;;;1.48;0.85;;;19.10;63.80;;;;;;10942446;32;20022;-68
2022/04/27 10:59:56;;;;;;;1.23;0.82;;;19.30;62.90;;;;;;10928619;32;20027;-68
2022/04/27 11:05:59;;;;;;;1.17;0.95;;;19.40;62.80;;;;;;10942036;32;20370;-67
2022/04/27 11:12:02;;;;;;;2.15;0.80;;;19.80;61.40;;;;;;10939540;32;20488;-67
2022/04/27 11:18:04;;;;;;;1.75;1.23;;;20.00;61.00;;;;;;10937631;32;20061;-68
2022/04/27 11:24:18;;;;;;;1.17;0.82;;;20.30;60.00;;;;;;10939977;32;20342;-68
2022/04/27 11:30:21;;;;;;;2.47;1.08;;;20.50;59.00;;;;;;10941917;32;20065;-68
2022/04/27 11:36:43;;;;;;;1.08;0.62;;;20.80;58.30;;;;;;10941579;32;20320;-70
2022/04/27 11:42:47;;;;;;;1.45;0.93;;;21.10;57.00;;;;;;10941306;32;20058;-70
2022/04/27 11:48:53;;;;;;;1.08;0.82;;;21.10;56.20;;;;;;10940589;32;20039;-68
2022/04/27 11:55:09;;;;;;;2.70;0.90;;;21.30;56.70;;;;;;10941211;32;20323;-68
2022/04/27 12:01:11;;;;;;;4.32;1.27;;;21.60;56.40;;;;;;10940892;32;20069;-69
2022/04/27 12:07:14;;;;;;;4.68;1.60;;;21.30;56.40;;;;;;10941020;32;20417;-68
2022/04/27 12:13:21;;;;;;;3.33;1.10;;;20.30;58.00;;;;;;10940825;32;20054;-68
2022/04/27 12:19:29;;;;;;;1.65;0.77;;;19.80;58.90;;;;;;10941090;32;20041;-68
2022/04/27 12:25:32;;;;;;;2.83;1.30;;;19.40;59.50;;;;;;10945658;32;20030;-68
2022/04/27 12:31:37;;;;;;;2.55;1.40;;;19.30;59.70;;;;;;10945926;32;20073;-68
2022/04/27 12:37:39;;;;;;;2.47;1.58;;;19.30;59.80;;;;;;10947337;32;20023;-68
2022/04/27 12:43:48;;;;;;;2.70;1.50;;;19.80;59.60;;;;;;10947011;32;20027;-69
2022/04/27 12:50:00;;;;;;;3.72;1.60;;;20.20;58.80;;;;;;10947020;32;20050;-69
2022/04/27 12:56:15;;;;;;;1.67;1.05;;;20.60;58.20;;;;;;10946763;32;20031;-69
2022/04/27 13:02:17;;;;;;;2.35;1.12;;;20.70;57.80;;;;;;10943730;32;20054;-68
2022/04/27 13:08:20;;;;;;;2.45;1.20;;;20.70;58.20;;;;;;10946658;32;20054;-68
2022/04/27 13:14:24;;;;;;;2.30;1.55;;;20.90;57.80;;;;;;10942442;32;20399;-69
2022/04/27 13:20:26;;;;;;;0.95;0.80;;;21.00;57.30;;;;;;10940460;32;20035;-68
2022/04/27 13:26:34;;;;;;;1.65;1.10;;;21.20;56.70;;;;;;10945290;32;20092;-68
2022/04/27 13:32:37;;;;;;;2.87;0.93;;;21.20;56.50;;;;;;10944703;32;20315;-68
2022/04/27 13:38:39;;;;;;;1.75;0.90;;;21.30;56.20;;;;;;10943992;32;20335;-69
2022/04/27 13:44:41;;;;;;;2.97;1.73;;;21.30;56.00;;;;;;10944916;32;20031;-69
2022/04/27 13:50:43;;;;;;;1.25;1.02;;;21.40;56.00;;;;;;10944567;32;20057;-69
2022/04/27 13:56:47;;;;;;;2.22;1.10;;;21.50;56.30;;;;;;10944015;32;20041;-69
2022/04/27 14:02:49;;;;;;;1.92;1.25;;;21.70;56.10;;;;;;10940719;32;20035;-69
2022/04/27 14:08:51;;;;;;;5.07;1.45;;;21.80;55.50;;;;;;10944017;32;20030;-68
2022/04/27 14:14:54;;;;;;;3.92;2.25;;;21.80;55.50;;;;;;10941788;32;20031;-69
2022/04/27 14:20:57;;;;;;;2.97;1.25;;;21.80;54.90;;;;;;10943645;32;20023;-69
2022/04/27 14:26:59;;;;;;;2.75;0.70;;;21.90;54.90;;;;;;10943369;32;20027;-68
2022/04/27 14:33:01;;;;;;;1.08;0.82;;;22.00;54.90;;;;;;10940655;32;20053;-69
2022/04/27 14:39:03;;;;;;;3.00;1.37;;;22.20;54.70;;;;;;10941439;32;20445;-69
2022/04/27 14:45:08;;;;;;;4.05;2.15;;;22.30;53.50;;;;;;10942179;32;20031;-70
2022/04/27 14:51:10;;;;;;;2.22;0.88;;;22.30;53.80;;;;;;10936677;32;20402;-69
2022/04/27 14:57:13;;;;;;;2.67;0.90;;;22.20;53.90;;;;;;10937916;32;20042;-68
2022/04/27 15:03:15;;;;;;;1.90;1.15;;;22.30;53.50;;;;;;10941583;32;20034;-69
2022/04/27 15:09:17;;;;;;;1.05;0.80;;;22.60;52.80;;;;;;10940730;32;20019;-68
2022/04/27 15:15:19;;;;;;;2.85;1.40;;;22.80;52.10;;;;;;10934929;32;20031;-69
2022/04/27 15:27:48;;;;;;;0.77;0.60;;;23.00;51.00;;;;;;10940522;32;20034;-68
2022/04/27 15:33:52;;;;;;;2.58;0.98;;;23.00;50.50;;;;;;10939363;32;20027;-69
2022/04/27 15:39:54;;;;;;;0.82;0.77;;;23.20;50.30;;;;;;10941302;32;20039;-69
2022/04/27 15:45:57;;;;;;;1.15;0.65;;;23.30;50.30;;;;;;10939697;32;20056;-70
2022/04/27 15:52:00;;;;;;;1.30;0.70;;;23.30;49.90;;;;;;10941317;32;20077;-70
2022/04/27 15:58:04;;;;;;;0.62;0.62;;;23.30;50.00;;;;;;10947575;32;20049;-71
2022/04/27 16:04:34;;;;;;;1.85;0.52;;;23.30;49.80;;;;;;10947862;32;20339;-70
2022/04/27 16:10:38;;;;;;;0.32;0.32;;;23.40;49.40;;;;;;10947978;32;20081;-70
2022/04/27 16:16:40;;;;;;;0.62;0.40;;;23.60;48.70;;;;;;10945484;32;20045;-70
2022/04/27 16:29:03;;;;;;;0.35;0.35;;;24.20;47.20;;;;;;10948074;32;20387;-71
2022/04/27 16:35:08;;;;;;;0.57;0.43;;;24.20;45.00;;;;;;10947900;32;20045;-71
2022/04/27 16:41:12;;;;;;;0.40;0.40;;;23.90;44.60;;;;;;10947481;32;20354;-70
2022/04/27 16:47:14;;;;;;;0.32;0.32;;;24.30;45.10;;;;;;10944340;32;20031;-71
2022/04/27 16:53:16;;;;;;;0.60;0.40;;;25.20;44.00;;;;;;10946967;32;20066;-70
2022/04/27 16:59:18;;;;;;;2.75;1.25;;;26.30;42.90;;;;;;10946956;32;20444;-71
2022/04/27 17:05:20;;;;;;;0.62;0.37;;;26.40;42.80;;;;;;10932600;32;20039;-71
2022/04/27 17:11:25;;;;;;;0.52;0.40;;;25.70;44.40;;;;;;10929510;32;20023;-71
2022/04/27 17:17:42;;;;;;;2.55;0.80;;;24.80;44.90;;;;;;10970896;27;20023;-71
2022/04/27 17:23:45;;;;;;;2.37;0.60;;;24.90;44.80;;;;;;10945816;32;20051;-71
2022/04/27 17:29:47;;;;;;;0.88;0.75;;;25.60;43.20;;;;;;10946295;32;20299;-71
2022/04/27 17:35:50;;;;;;;0.98;0.50;;;25.60;43.20;;;;;;10945677;32;20043;-71
2022/04/27 17:42:34;;;;;;;1.10;0.65;;;24.70;44.50;;;;;;10945457;32;20105;-71
2022/04/27 17:48:19;;;;;;;0.70;0.45;;;23.80;46.10;;;;;;10943240;32;20026;-71
2022/04/27 17:54:22;;;;;;;0.40;0.40;;;23.30;47.10;;;;;;10945193;32;20027;-71
2022/04/27 18:00:30;;;;;;;0.70;0.70;;;22.70;48.20;;;;;;10945463;32;20019;-71
2022/04/27 18:06:37;;;;;;;0.52;0.52;;;22.00;49.20;;;;;;10945053;32;20022;-71
2022/04/27 18:12:40;;;;;;;3.30;1.98;;;21.50;50.50;;;;;;10944826;32;20366;-71
2022/04/27 18:18:42;;;;;;;2.75;1.25;;;21.10;51.10;;;;;;10943448;32;20402;-71
2022/04/27 18:24:45;;;;;;;1.90;0.95;;;20.80;52.10;;;;;;10943938;32;20031;-71
2022/04/27 18:30:48;;;;;;;2.58;1.52;;;20.40;53.40;;;;;;10942653;32;20023;-69
2022/04/27 18:36:50;;;;;;;3.80;1.15;;;20.30;54.20;;;;;;10943388;32;20030;-68
2022/04/27 18:42:53;;;;;;;1.02;0.80;;;20.20;54.20;;;;;;10942161;32;20022;-68
2022/04/27 18:55:41;;;;;;;1.02;0.93;;;19.90;54.90;;;;;;10942646;32;20050;-68
2022/04/27 19:01:43;;;;;;;1.00;0.65;;;19.80;55.50;;;;;;10943177;32;20331;-68
2022/04/27 19:07:46;;;;;;;1.67;1.08;;;19.70;55.80;;;;;;10942307;32;20035;-68
2022/04/27 19:13:49;;;;;;;1.20;1.00;;;19.60;56.60;;;;;;10942086;32;20190;-68
2022/04/27 19:19:52;;;;;;;1.33;1.02;;;19.50;57.00;;;;;;10942008;32;20015;-68
2022/04/27 19:26:18;;;;;;;2.22;1.00;;;19.30;57.20;;;;;;10864047;32;20019;-68
2022/04/27 19:32:40;;;;;;;1.65;1.17;;;19.30;57.30;;;;;;10869623;32;20031;-68
2022/04/27 19:38:48;;;;;;;1.45;1.25;;;19.20;58.00;;;;;;10875714;32;20415;-68
2022/04/27 19:44:53;;;;;;;2.03;1.40;;;19.10;58.30;;;;;;10871600;32;20062;-68
2022/04/27 19:50:56;;;;;;;3.28;1.83;;;18.90;58.90;;;;;;10873033;32;20027;-68
2022/04/27 19:56:58;;;;;;;1.75;1.40;;;18.90;59.30;;;;;;10940211;32;20379;-68
2022/04/27 20:03:01;;;;;;;1.10;1.00;;;18.80;59.60;;;;;;10953574;32;20410;-68
2022/04/27 20:09:19;;;;;;;1.05;0.95;;;18.70;59.90;;;;;;10875844;32;20090;-68
2022/04/27 20:15:21;;;;;;;2.00;1.23;;;18.60;60.50;;;;;;10874476;32;20035;-68
2022/04/27 20:21:23;;;;;;;1.67;1.30;;;18.40;61.30;;;;;;10874480;32;20039;-68
2022/04/27 20:27:28;;;;;;;4.90;2.22;;;18.30;61.90;;;;;;10874164;32;20023;-68
2022/04/27 20:33:33;;;;;;;3.20;1.55;;;18.30;62.40;;;;;;10874927;32;20031;-68
2022/04/27 20:39:35;;;;;;;3.05;2.05;;;18.30;62.30;;;;;;10873549;32;20071;-68
2022/04/27 20:45:38;;;;;;;3.35;1.87;;;18.20;62.40;;;;;;10867401;32;20069;-68
2022/04/27 20:58:03;;;;;;;3.12;1.92;;;18.20;62.90;;;;;;10910585;32;20027;-68
2022/04/27 21:04:05;;;;;;;2.55;2.00;;;18.10;63.80;;;;;;10946490;32;20035;-68
2022/04/27 21:10:10;;;;;;;2.00;1.80;;;18.10;64.10;;;;;;10946524;32;20065;-68
2022/04/27 21:16:17;;;;;;;4.03;2.70;;;18.00;64.70;;;;;;10946181;32;20049;-68
2022/04/27 21:22:20;;;;;;;2.42;1.80;;;18.00;64.90;;;;;;10945789;32;20057;-68
2022/04/27 21:28:22;;;;;;;2.75;1.70;;;18.00;64.80;;;;;;10945719;32;20399;-67
2022/04/27 21:34:26;;;;;;;2.53;1.87;;;18.00;65.20;;;;;;10945379;32;20034;-68
2022/04/27 21:40:28;;;;;;;4.35;2.53;;;18.00;65.80;;;;;;10945286;32;20027;-68
2022/04/27 21:46:30;;;;;;;3.75;2.25;;;17.80;66.80;;;;;;10931674;32;20050;-68
2022/04/27 21:52:32;;;;;;;4.20;2.67;;;17.60;67.80;;;;;;10944796;32;20370;-68
2022/04/27 21:58:34;;;;;;;3.87;2.58;;;17.40;68.10;;;;;;10944715;32;20384;-68
2022/04/27 22:04:40;;;;;;;3.75;2.45;;;17.50;68.30;;;;;;10944468;32;20034;-67
2022/04/27 22:10:43;;;;;;;3.97;2.47;;;17.50;68.20;;;;;;10943370;32;20363;-68
2022/04/27 22:16:46;;;;;;;5.65;2.62;;;17.50;68.20;;;;;;10939733;32;20027;-68
2022/04/27 22:22:48;;;;;;;5.12;2.47;;;17.50;67.80;;;;;;10943841;32;20053;-68
2022/04/27 22:28:50;;;;;;;4.22;2.55;;;17.50;67.80;;;;;;10939388;32;20023;-68
2022/04/27 22:34:52;;;;;;;3.60;2.10;;;17.50;68.40;;;;;;10943383;32;20065;-68
2022/04/27 22:40:54;;;;;;;2.95;2.00;;;17.40;68.60;;;;;;10943199;32;20556;-68
2022/04/27 22:46:56;;;;;;;2.53;2.17;;;17.50;68.40;;;;;;10943040;32;20449;-68
2022/04/27 22:52:57;;;;;;;2.80;2.15;;;17.50;68.50;;;;;;10942787;32;20027;-68
2022/04/27 22:59:00;;;;;;;3.08;2.00;;;17.50;68.40;;;;;;10942691;32;20039;-68
2022/04/27 23:05:09;;;;;;;1.80;1.60;;;17.50;68.20;;;;;;10941905;32;20035;-67
2022/04/27 23:11:12;;;;;;;3.42;1.87;;;17.50;68.00;;;;;;10941413;32;20057;-68
2022/04/27 23:17:14;;;;;;;5.07;2.83;;;17.50;68.10;;;;;;10942071;32;20019;-68
2022/04/27 23:23:16;;;;;;;3.25;2.45;;;17.50;68.00;;;;;;10941839;32;20031;-68
2022/04/27 23:29:18;;;;;;;4.05;2.80;;;17.40;67.90;;;;;;10941993;32;20392;-68
2022/04/27 23:35:21;;;;;;;2.72;2.00;;;17.30;68.10;;;;;;10941688;32;20057;-68
2022/04/27 23:41:23;;;;;;;4.18;2.78;;;17.20;68.00;;;;;;10940618;32;20061;-68
2022/04/27 23:47:25;;;;;;;3.08;2.30;;;17.10;68.40;;;;;;10941184;32;20053;-68
2022/04/27 23:53:27;;;;;;;4.00;2.60;;;17.10;68.40;;;;;;10941367;32;20073;-68
2022/04/27 23:59:29;;;;;;;4.90;3.45;;;17.00;68.60;;;;;;10937192;32;20058;-68
